Time;durP1;ratioP1;P1;durP2;ratioP2;P2;SDS_P1;SDS_P2;PMS_P1;PMS_P2;Temp;Humidity;BMP_temperature;BMP_pressure;BME280_temperature;BME280_humidity;BME280_pressure;Samples;Min_cycle;Max_cycle;Signal;HPM_P1;HPM_P2
2023/08/07 00:01:19;;;;;;;3.40;1.10;;;;;;;12.99;100.00;99984.59;5107909;27;20128;-72
2023/08/07 00:03:47;;;;;;;2.25;1.00;;;;;;;13.00;100.00;99988.09;5114481;28;20438;-74
2023/08/07 00:06:15;;;;;;;3.50;0.98;;;;;;;13.02;100.00;99980.03;5107327;28;20039;-75
2023/08/07 00:08:43;;;;;;;3.05;0.80;;;;;;;13.03;100.00;99990.56;5104992;28;20105;-75
2023/08/07 00:11:11;;;;;;;1.35;0.52;;;;;;;13.03;100.00;99995.03;5137836;27;20036;-75
2023/08/07 00:13:39;;;;;;;1.48;0.75;;;;;;;13.00;100.00;99991.63;5130363;27;20288;-74
2023/08/07 00:16:07;;;;;;;4.60;0.73;;;;;;;13.00;100.00;99991.63;5119381;27;20491;-74
2023/08/07 00:18:36;;;;;;;3.22;0.98;;;;;;;12.95;100.00;99977.75;5121214;27;20051;-75
2023/08/07 00:21:04;;;;;;;5.25;0.90;;;;;;;12.94;100.00;99991.13;5112923;27;20070;-73
2023/08/07 00:23:32;;;;;;;2.22;1.05;;;;;;;12.94;100.00;99991.13;5128866;27;20045;-74
2023/08/07 00:26:00;;;;;;;2.85;1.20;;;;;;;12.92;100.00;99995.69;5116786;27;20040;-74
2023/08/07 00:28:29;;;;;;;8.00;1.40;;;;;;;12.90;100.00;99992.31;5125934;27;20822;-74
2023/08/07 00:30:58;;;;;;;3.67;1.05;;;;;;;12.86;100.00;99991.63;5121048;27;20047;-75
2023/08/07 00:33:28;;;;;;;6.28;1.02;;;;;;;12.88;100.00;99996.84;5103868;27;20047;-75
2023/08/07 00:35:57;;;;;;;6.57;1.13;;;;;;;12.79;100.00;99986.78;5101894;27;20052;-74
2023/08/07 00:38:25;;;;;;;6.00;1.20;;;;;;;12.84;100.00;99992.69;5123069;27;20055;-75
2023/08/07 00:40:55;;;;;;;4.45;1.70;;;;;;;12.83;100.00;99989.16;5120155;27;20119;-73
2023/08/07 00:43:23;;;;;;;6.22;1.38;;;;;;;12.83;100.00;99991.81;5117924;27;20410;-75
2023/08/07 00:45:52;;;;;;;4.63;1.25;;;;;;;12.84;100.00;99998.00;5099747;27;20043;-75
2023/08/07 00:48:20;;;;;;;8.82;1.30;;;;;;;12.85;100.00;100003.22;5120444;27;20051;-75
2023/08/07 00:50:50;;;;;;;2.33;1.02;;;;;;;12.79;100.00;99987.63;5124993;27;20134;-76
2023/08/07 00:53:19;;;;;;;5.50;1.40;;;;;;;12.83;100.00;99999.78;5126484;27;20107;-74
2023/08/07 00:55:47;;;;;;;5.47;1.55;;;;;;;12.82;100.00;100003.41;5115477;27;20431;-75
2023/08/07 00:58:15;;;;;;;4.93;1.30;;;;;;;12.79;100.00;100000.91;5119178;27;20043;-75
2023/08/07 01:00:44;;;;;;;6.22;1.10;;;;;;;12.76;100.00;99993.13;5131026;27;20179;-74
2023/08/07 01:03:13;;;;;;;4.03;1.20;;;;;;;12.77;100.00;99994.84;5107804;27;20498;-74
2023/08/07 01:05:41;;;;;;;3.77;1.20;;;;;;;12.80;100.00;99999.97;5117468;27;20554;-74
2023/08/07 01:08:10;;;;;;;6.63;1.33;;;;;;;12.83;100.00;99998.94;5103233;27;20489;-75
2023/08/07 01:10:49;;;;;;;3.50;1.00;;;;;;;12.84;100.00;100001.50;5126262;27;20071;-75
2023/08/07 01:13:29;;;;;;;5.07;1.40;;;;;;;12.77;100.00;99996.66;5123267;27;20056;-75
2023/08/07 01:16:02;;;;;;;3.88;0.93;;;;;;;12.78;100.00;100001.00;5117802;27;20043;-75
2023/08/07 01:18:32;;;;;;;3.65;1.10;;;;;;;12.75;100.00;100002.06;5116643;27;20168;-76
2023/08/07 01:21:00;;;;;;;6.55;1.30;;;;;;;12.73;100.00;99995.16;5140713;27;20050;-75
2023/08/07 01:23:31;;;;;;;4.07;1.10;;;;;;;12.71;100.00;100005.03;5121632;27;20046;-75
2023/08/07 01:25:59;;;;;;;3.30;1.08;;;;;;;12.68;100.00;100015.84;5122300;27;20051;-76
2023/08/07 01:28:34;;;;;;;5.90;1.10;;;;;;;12.68;100.00;100005.19;5092069;27;20481;-75
2023/08/07 01:31:11;;;;;;;3.80;1.45;;;;;;;12.62;100.00;100007.28;5124033;27;20039;-74
2023/08/07 01:33:48;;;;;;;4.55;1.02;;;;;;;12.63;100.00;100016.97;5123945;27;20053;-74
2023/08/07 01:36:20;;;;;;;3.97;1.00;;;;;;;12.64;100.00;100001.88;5118498;27;20050;-74
2023/08/07 01:38:51;;;;;;;2.47;0.90;;;;;;;12.57;100.00;99997.91;5102383;27;20519;-73
2023/08/07 01:41:20;;;;;;;5.22;1.27;;;;;;;12.64;100.00;100009.84;5143220;27;20031;-76
2023/08/07 01:43:48;;;;;;;4.53;1.17;;;;;;;12.60;100.00;100003.00;5140409;27;20092;-75
2023/08/07 01:46:17;;;;;;;3.78;1.35;;;;;;;12.51;100.00;99990.31;5105112;27;20065;-74
2023/08/07 01:48:46;;;;;;;5.10;1.20;;;;;;;12.66;100.00;100015.91;5122171;27;20132;-74
2023/08/07 01:51:15;;;;;;;4.63;1.60;;;;;;;12.67;100.00;100016.78;5109362;27;20040;-75
2023/08/07 01:53:43;;;;;;;3.08;1.20;;;;;;;12.66;100.00;100018.56;5130009;27;20035;-74
2023/08/07 01:56:13;;;;;;;5.90;1.52;;;;;;;12.65;100.00;100014.22;5120878;27;20051;-75
2023/08/07 01:58:40;;;;;;;8.00;1.92;;;;;;;12.66;100.00;100010.59;5124806;27;20566;-75
2023/08/07 02:01:08;;;;;;;6.07;1.40;;;;;;;12.60;100.00;100003.00;5124566;27;20031;-76
2023/08/07 02:03:36;;;;;;;4.90;1.65;;;;;;;12.65;100.00;100016.88;5123371;27;20658;-74
2023/08/07 02:06:06;;;;;;;5.88;1.67;;;;;;;12.62;100.00;100009.94;5129748;27;20043;-74
2023/08/07 02:08:35;;;;;;;5.90;1.40;;;;;;;12.65;100.00;100024.84;5103958;27;20126;-74
2023/08/07 02:11:03;;;;;;;6.38;1.50;;;;;;;12.63;100.00;100016.09;5125056;27;20058;-74
2023/08/07 02:13:32;;;;;;;8.23;1.63;;;;;;;12.63;100.00;100019.63;5122688;27;20058;-76
2023/08/07 02:16:00;;;;;;;6.15;1.70;;;;;;;12.66;100.00;100026.53;5101826;27;20045;-76
2023/08/07 02:18:29;;;;;;;6.85;1.58;;;;;;;12.68;100.00;100024.66;5121516;27;20041;-76
2023/08/07 02:20:56;;;;;;;6.93;1.85;;;;;;;12.67;100.00;100030.06;5138543;27;20043;-75
2023/08/07 02:23:27;;;;;;;9.50;1.77;;;;;;;12.60;100.00;100021.59;5133367;27;20514;-74
2023/08/07 02:25:57;;;;;;;8.30;1.80;;;;;;;12.56;100.00;100026.28;5130646;27;20828;-75
2023/08/07 02:28:25;;;;;;;5.40;1.58;;;;;;;12.61;100.00;100026.81;5120217;27;20051;-75
2023/08/07 02:30:56;;;;;;;5.25;1.40;;;;;;;12.53;100.00;100021.13;5101163;27;20043;-74
2023/08/07 02:33:23;;;;;;;3.88;1.35;;;;;;;12.51;100.00;100006.22;5120947;27;20054;-73
2023/08/07 02:35:51;;;;;;;6.88;1.80;;;;;;;12.60;100.00;100029.56;5102425;27;20050;-74
2023/08/07 02:38:22;;;;;;;5.47;1.85;;;;;;;12.57;100.00;100027.13;5100690;27;20050;-74
2023/08/07 02:40:50;;;;;;;6.43;1.73;;;;;;;12.61;100.00;100036.59;5117694;27;20055;-74
2023/08/07 02:43:18;;;;;;;4.57;1.67;;;;;;;12.60;100.00;100032.22;5122296;27;20960;-74
2023/08/07 02:45:46;;;;;;;6.22;1.65;;;;;;;12.58;100.00;100032.34;5121148;27;20053;-75
2023/08/07 02:48:17;;;;;;;7.53;1.67;;;;;;;12.59;100.00;100027.88;5097854;27;20139;-75
2023/08/07 02:50:46;;;;;;;7.35;1.95;;;;;;;12.60;100.00;100029.56;5106893;27;20039;-75
2023/08/07 02:53:14;;;;;;;6.03;1.58;;;;;;;12.61;100.00;100029.47;5120513;27;20044;-73
2023/08/07 02:55:44;;;;;;;6.43;1.58;;;;;;;12.61;100.00;100034.78;5111345;28;20058;-74
2023/08/07 02:58:12;;;;;;;5.38;1.77;;;;;;;12.54;100.00;100028.16;5109126;27;20047;-76
2023/08/07 03:00:40;;;;;;;9.60;2.00;;;;;;;12.60;100.00;100042.84;5141754;27;20078;-75
2023/08/07 03:03:08;;;;;;;8.48;1.52;;;;;;;12.58;100.00;100032.34;5139063;27;20061;-76
2023/08/07 03:05:38;;;;;;;5.20;1.67;;;;;;;12.52;100.00;100031.84;5120657;28;20051;-75
2023/08/07 03:08:06;;;;;;;4.20;1.63;;;;;;;12.56;100.00;100033.38;5130898;27;20036;-74
2023/08/07 03:10:35;;;;;;;5.05;1.70;;;;;;;12.50;100.00;100028.44;5142971;27;20050;-74
2023/08/07 03:13:03;;;;;;;7.22;1.88;;;;;;;12.51;100.00;100028.34;5112506;28;20036;-74
2023/08/07 03:15:33;;;;;;;5.05;2.15;;;;;;;12.57;100.00;100029.78;5091159;28;20054;-75
2023/08/07 03:18:02;;;;;;;7.93;2.22;;;;;;;12.56;100.00;100030.72;5112845;28;20043;-76
2023/08/07 03:20:30;;;;;;;5.25;1.90;;;;;;;12.43;100.00;100014.69;5123762;28;20043;-74
2023/08/07 03:23:00;;;;;;;6.28;2.13;;;;;;;12.54;100.00;100029.97;5106133;28;20046;-74
2023/08/07 03:25:28;;;;;;;6.07;2.28;;;;;;;12.46;100.00;100022.44;5122349;28;20046;-74
2023/08/07 03:27:56;;;;;;;8.75;2.22;;;;;;;12.52;100.00;100031.84;5096083;28;20044;-74
2023/08/07 03:30:24;;;;;;;7.07;2.33;;;;;;;12.54;100.00;100032.63;5119670;28;20040;-74
2023/08/07 03:32:52;;;;;;;3.47;1.83;;;;;;;12.50;100.00;100034.59;5103368;28;20089;-75
2023/08/07 03:35:21;;;;;;;6.47;2.58;;;;;;;12.51;100.00;100024.81;5104486;28;20032;-73
2023/08/07 03:37:50;;;;;;;6.55;2.13;;;;;;;12.58;100.00;100042.97;5110419;28;20042;-74
2023/08/07 03:40:20;;;;;;;6.60;1.83;;;;;;;12.50;100.00;100031.09;5120415;28;20111;-74
2023/08/07 03:42:48;;;;;;;4.68;2.05;;;;;;;12.46;100.00;100027.75;5118867;28;20044;-74
2023/08/07 03:45:16;;;;;;;6.90;2.00;;;;;;;12.49;100.00;100042.66;5120508;27;20047;-73
2023/08/07 03:47:44;;;;;;;6.05;2.80;;;;;;;12.47;100.00;100039.22;5118352;27;20063;-73
2023/08/07 03:50:12;;;;;;;8.20;2.05;;;;;;;12.52;100.00;100050.44;5125058;27;20499;-75
2023/08/07 03:52:39;;;;;;;4.68;1.92;;;;;;;12.48;100.00;100039.13;5128671;27;20112;-74
2023/08/07 03:55:08;;;;;;;9.55;2.08;;;;;;;12.48;100.00;100040.94;5124528;27;20088;-75
2023/08/07 03:57:38;;;;;;;7.03;2.40;;;;;;;12.46;100.00;100030.41;5120266;27;20057;-75
2023/08/07 04:00:07;;;;;;;6.15;2.10;;;;;;;12.44;100.00;100034.94;5105452;27;20047;-72
2023/08/07 04:02:41;;;;;;;7.57;2.40;;;;;;;12.45;100.00;100041.97;5122007;27;20036;-72
2023/08/07 04:05:12;;;;;;;7.25;2.40;;;;;;;12.41;100.00;100023.69;5123045;27;20047;-72
2023/08/07 04:07:39;;;;;;;7.95;2.33;;;;;;;12.51;100.00;100035.44;5116753;27;20043;-72
2023/08/07 04:10:08;;;;;;;9.00;2.63;;;;;;;12.48;100.00;100036.47;5099146;27;20060;-74
2023/08/07 04:12:38;;;;;;;9.52;2.28;;;;;;;12.50;100.00;100039.06;5126045;27;20034;-74
2023/08/07 04:15:08;;;;;;;6.05;2.30;;;;;;;12.51;100.00;100036.31;5103232;27;20039;-72
2023/08/07 04:17:37;;;;;;;9.55;2.67;;;;;;;12.54;100.00;100029.97;5119427;27;20107;-71
2023/08/07 04:20:06;;;;;;;4.63;2.65;;;;;;;12.54;100.00;100041.44;5116511;27;20521;-75
2023/08/07 04:22:34;;;;;;;6.18;2.53;;;;;;;12.53;100.00;100034.41;5119142;27;20072;-72
2023/08/07 04:25:03;;;;;;;6.30;2.40;;;;;;;12.58;100.00;100035.00;5122710;27;20044;-73
2023/08/07 04:27:31;;;;;;;6.78;2.50;;;;;;;12.65;100.00;100046.94;5121571;27;20581;-73
2023/08/07 04:30:00;;;;;;;5.90;2.30;;;;;;;12.65;100.00;100049.59;5121417;27;20043;-73
2023/08/07 04:32:28;;;;;;;6.45;2.50;;;;;;;12.68;100.00;100053.03;5119013;27;20046;-74
2023/08/07 04:34:57;;;;;;;5.30;2.45;;;;;;;12.70;100.00;100051.13;5123295;27;20521;-74
2023/08/07 04:37:26;;;;;;;8.10;2.40;;;;;;;12.67;100.00;100052.16;5103779;27;20074;-74
2023/08/07 04:39:55;;;;;;;6.70;2.40;;;;;;;12.65;100.00;100054.91;5115353;27;20261;-73
2023/08/07 04:42:23;;;;;;;7.45;2.50;;;;;;;12.64;100.00;100058.50;5118171;27;20047;-73
2023/08/07 04:44:51;;;;;;;5.57;2.17;;;;;;;12.64;100.00;100058.50;5111177;27;20056;-73
2023/08/07 04:47:23;;;;;;;6.03;2.22;;;;;;;12.65;100.00;100076.16;5122463;27;20055;-73
2023/08/07 04:49:51;;;;;;;8.27;2.13;;;;;;;12.69;100.00;100060.91;5116555;27;20054;-72
2023/08/07 04:52:21;;;;;;;7.40;2.40;;;;;;;12.78;100.00;100076.28;5121824;27;20067;-74
2023/08/07 04:54:53;;;;;;;6.40;2.15;;;;;;;12.74;100.00;100080.09;5124012;27;20039;-73
2023/08/07 04:57:21;;;;;;;6.53;2.65;;;;;;;12.75;100.00;100078.28;5121443;27;20067;-72
2023/08/07 04:59:50;;;;;;;6.50;1.95;;;;;;;12.80;100.00;100084.16;5118012;27;20039;-75
2023/08/07 05:02:20;;;;;;;6.05;1.90;;;;;;;12.84;100.00;100081.22;5118758;27;20042;-74
2023/08/07 05:04:49;;;;;;;;;;;;;;;12.86;100.00;100089.09;5123598;27;20035;-73
2023/08/07 05:07:17;;;;;;;4.68;1.80;;;;;;;12.77;100.00;100063.06;5121586;27;19959;-74
2023/08/07 05:09:45;;;;;;;6.03;2.20;;;;;;;12.85;100.00;100088.25;5111047;27;20043;-73
2023/08/07 05:12:14;;;;;;;5.95;2.15;;;;;;;12.71;100.00;100082.06;5124708;27;20430;-73
2023/08/07 05:14:42;;;;;;;3.65;2.13;;;;;;;12.80;100.00;100085.00;5120199;27;20446;-72
2023/08/07 05:17:09;;;;;;;5.85;2.13;;;;;;;12.86;100.00;100097.94;5119431;27;20046;-74
2023/08/07 05:19:39;;;;;;;4.10;1.90;;;;;;;12.84;100.00;100097.16;5100919;27;20059;-74
2023/08/07 05:22:06;;;;;;;7.05;2.22;;;;;;;12.79;100.00;100101.91;5121707;27;20055;-73
2023/08/07 05:24:38;;;;;;;6.75;2.63;;;;;;;12.79;100.00;100093.06;5123299;27;20038;-74
2023/08/07 05:27:10;;;;;;;7.90;2.22;;;;;;;12.68;100.00;100077.78;5127941;27;20061;-72
2023/08/07 05:29:43;;;;;;;6.75;2.25;;;;;;;12.83;100.00;100111.41;5137869;27;20066;-73
2023/08/07 05:32:13;;;;;;;7.07;2.42;;;;;;;12.85;100.00;100098.88;5138764;27;20039;-73
2023/08/07 05:34:42;;;;;;;6.07;2.20;;;;;;;12.90;100.00;100103.91;5121101;27;20043;-73
2023/08/07 05:37:10;;;;;;;5.20;2.10;;;;;;;13.03;100.00;100112.84;5102953;27;20039;-73
2023/08/07 05:39:38;;;;;;;10.48;2.53;;;;;;;12.91;100.00;100102.94;5112951;27;20039;-74
2023/08/07 05:42:07;;;;;;;5.88;2.25;;;;;;;12.97;100.00;100111.41;5117269;27;20042;-74
2023/08/07 05:44:35;;;;;;;7.40;2.20;;;;;;;13.01;100.00;100101.44;5123515;27;20525;-74
2023/08/07 05:47:03;;;;;;;7.95;2.28;;;;;;;13.04;100.00;100098.59;5120165;27;20823;-74
2023/08/07 05:49:33;;;;;;;7.13;2.20;;;;;;;13.06;100.00;100111.81;5116032;27;20084;-73
2023/08/07 05:52:02;;;;;;;4.80;2.13;;;;;;;13.03;100.00;100119.97;5108471;27;20529;-73
2023/08/07 05:54:31;;;;;;;7.00;2.20;;;;;;;13.02;100.00;100116.44;5103861;27;20035;-73
2023/08/07 05:56:59;;;;;;;5.43;2.13;;;;;;;12.98;100.00;100115.78;5105312;27;20070;-72
2023/08/07 05:59:27;;;;;;;5.72;2.10;;;;;;;12.90;100.00;100112.75;5101532;27;20039;-73
2023/08/07 06:01:55;;;;;;;4.55;2.28;;;;;;;12.87;100.00;100115.59;5124469;27;20100;-73
2023/08/07 06:04:26;;;;;;;6.93;2.15;;;;;;;12.85;100.00;100122.78;5140603;27;20418;-73
2023/08/07 06:06:54;;;;;;;4.55;2.17;;;;;;;12.84;100.00;100122.88;5126421;27;20039;-73
2023/08/07 06:09:26;;;;;;;6.03;2.50;;;;;;;12.67;100.00;100113.25;5106913;27;20047;-71
2023/08/07 06:11:56;;;;;;;7.07;2.92;;;;;;;12.72;100.00;100128.94;5132138;27;20050;-73
2023/08/07 06:14:28;;;;;;;7.95;2.63;;;;;;;12.61;100.00;100119.78;5126242;27;20130;-74
2023/08/07 06:17:00;;;;;;;10.63;2.75;;;;;;;12.67;100.00;100142.50;5129230;27;20064;-74
2023/08/07 06:19:28;;;;;;;7.85;2.63;;;;;;;12.61;100.00;100127.75;5121207;27;20044;-74
2023/08/07 06:22:00;;;;;;;6.22;2.20;;;;;;;12.53;100.00;100127.38;5117511;27;20050;-73
2023/08/07 06:24:30;;;;;;;6.78;2.42;;;;;;;12.60;100.00;100135.81;5098372;27;20145;-73
2023/08/07 06:26:58;;;;;;;4.65;2.40;;;;;;;12.56;100.00;100135.16;5120710;27;20039;-74
2023/08/07 06:29:28;;;;;;;;;;;;;;;12.66;100.00;100146.09;5111696;27;20116;-75
2023/08/07 06:31:58;;;;;;;6.68;2.55;;;;;;;12.69;100.00;100142.41;5119758;27;19972;-73
2023/08/07 06:34:29;;;;;;;8.15;2.35;;;;;;;12.74;100.00;100143.84;5123387;27;20126;-73
2023/08/07 06:36:57;;;;;;;4.70;2.05;;;;;;;12.76;100.00;100149.91;5117238;27;20053;-71
2023/08/07 06:39:26;;;;;;;3.85;2.20;;;;;;;12.80;100.00;100154.09;5115066;27;20669;-72
2023/08/07 06:41:55;;;;;;;4.45;1.77;;;;;;;12.78;100.00;100158.63;5103378;27;20111;-74
2023/08/07 06:44:30;;;;;;;3.03;2.15;;;;;;;12.81;100.00;100163.78;5100789;27;20154;-74
2023/08/07 06:46:58;;;;;;;3.83;1.67;;;;;;;12.80;100.00;100162.06;5109884;27;23195;-73
2023/08/07 06:49:27;;;;;;;7.35;2.40;;;;;;;12.81;100.00;100165.56;5114071;27;20052;-73
2023/08/07 06:51:55;;;;;;;4.40;1.63;;;;;;;12.85;100.00;100175.94;5119324;27;20081;-73
2023/08/07 06:54:23;;;;;;;4.72;2.10;;;;;;;12.86;100.00;100167.03;5121450;27;20070;-73
2023/08/07 06:56:51;;;;;;;3.95;1.70;;;;;;;12.90;100.00;100181.00;5131687;27;20069;-73
2023/08/07 06:59:20;;;;;;;4.43;2.20;;;;;;;12.86;100.00;100176.78;5116451;27;20047;-73
2023/08/07 07:01:49;;;;;;;5.50;1.60;;;;;;;12.81;100.00;100176.19;5113575;27;20048;-72
2023/08/07 07:04:18;;;;;;;5.35;1.70;;;;;;;12.83;100.00;100174.31;5118731;27;20073;-74
2023/08/07 07:06:46;;;;;;;4.28;1.98;;;;;;;12.79;100.00;100184.25;5121991;27;20111;-72
2023/08/07 07:09:16;;;;;;;4.10;1.70;;;;;;;12.86;100.00;100190.94;5116230;28;20043;-74
2023/08/07 07:11:44;;;;;;;3.83;1.67;;;;;;;12.92;100.00;100195.00;5118531;27;20497;-73
2023/08/07 07:14:13;;;;;;;3.97;2.03;;;;;;;12.82;100.00;100185.88;5106997;28;20477;-73
2023/08/07 07:16:43;;;;;;;7.63;2.63;;;;;;;12.79;100.00;100170.97;5121685;28;20043;-73
2023/08/07 07:19:11;;;;;;;5.57;2.08;;;;;;;12.92;100.00;100200.31;5124602;28;20503;-72
2023/08/07 07:21:39;;;;;;;4.05;2.47;;;;;;;12.95;100.00;100203.66;5123584;27;20142;-73
2023/08/07 07:24:07;;;;;;;5.07;2.22;;;;;;;12.99;100.00;100205.19;5127181;27;20044;-72
2023/08/07 07:26:35;;;;;;;5.80;2.20;;;;;;;13.06;100.00;100219.00;5109864;27;20039;-72
2023/08/07 07:29:03;;;;;;;6.60;2.58;;;;;;;13.02;100.00;100209.47;5109328;27;20383;-72
2023/08/07 07:31:32;;;;;;;7.25;2.40;;;;;;;12.97;100.00;100207.09;5106361;27;20055;-71
2023/08/07 07:34:02;;;;;;;5.78;2.75;;;;;;;13.09;100.00;100216.13;5125656;27;20053;-72
2023/08/07 07:36:30;;;;;;;6.65;2.10;;;;;;;13.14;100.00;100216.72;5122656;27;20035;-73
2023/08/07 07:38:58;;;;;;;4.97;1.90;;;;;;;13.18;100.00;100217.44;5124342;27;20050;-73
2023/08/07 07:41:26;;;;;;;5.82;2.10;;;;;;;13.11;100.00;100230.19;5118022;27;20063;-73
2023/08/07 07:43:57;;;;;;;9.75;2.10;;;;;;;13.01;100.00;100229.03;5102642;27;20039;-72
2023/08/07 07:46:26;;;;;;;5.82;2.03;;;;;;;13.04;100.00;100235.97;5122452;27;20055;-73
2023/08/07 07:48:56;;;;;;;6.32;2.17;;;;;;;13.04;100.00;100242.16;5124216;27;20047;-72
2023/08/07 07:51:26;;;;;;;9.75;2.15;;;;;;;13.13;100.00;100238.06;5123485;27;20075;-72
2023/08/07 07:53:54;;;;;;;7.38;2.25;;;;;;;13.16;100.00;100251.22;5118754;27;20100;-71
2023/08/07 07:56:40;;;;;;;7.05;2.70;;;;;;;13.21;100.00;100255.31;5123739;27;20133;-72
2023/08/07 07:59:08;;;;;;;6.30;3.05;;;;;;;13.26;100.00;100255.03;5123619;27;20051;-73
2023/08/07 08:01:38;;;;;;;4.90;2.03;;;;;;;13.28;100.00;100254.00;5124877;27;20115;-73
2023/08/07 08:04:06;;;;;;;6.45;2.45;;;;;;;13.32;100.00;100254.66;5116475;27;20055;-73
2023/08/07 08:06:36;;;;;;;8.23;2.40;;;;;;;13.34;100.00;100260.75;5120730;27;20043;-73
2023/08/07 08:09:05;;;;;;;6.45;1.95;;;;;;;13.44;100.00;100256.56;5123679;27;20050;-73
2023/08/07 08:11:32;;;;;;;7.43;2.38;;;;;;;13.39;100.00;100260.44;5124448;27;20054;-72
2023/08/07 08:14:01;;;;;;;6.53;2.20;;;;;;;13.38;100.00;100262.25;5116442;27;20059;-74
2023/08/07 08:16:28;;;;;;;5.50;2.00;;;;;;;13.43;100.00;100270.81;5124527;27;20448;-72
2023/08/07 08:18:56;;;;;;;6.75;2.33;;;;;;;13.44;100.00;100253.91;5107213;27;20055;-72
2023/08/07 08:21:24;;;;;;;6.57;2.50;;;;;;;13.54;100.00;100262.19;5104054;27;20074;-71
2023/08/07 08:23:54;;;;;;;7.20;2.63;;;;;;;13.57;100.00;100273.50;5118258;27;20067;-71
2023/08/07 08:26:22;;;;;;;4.90;1.92;;;;;;;13.48;100.00;100257.25;5107317;27;20407;-73
2023/08/07 08:28:50;;;;;;;8.93;2.47;;;;;;;13.60;100.00;100254.69;5123852;27;20035;-73
2023/08/07 08:31:18;;;;;;;4.78;2.20;;;;;;;13.72;100.00;100268.19;5125378;27;20046;-73
2023/08/07 08:33:46;;;;;;;3.90;2.30;;;;;;;13.66;100.00;100272.94;5119540;27;20061;-73
2023/08/07 08:36:14;;;;;;;7.38;2.50;;;;;;;13.70;100.00;100269.13;5115607;27;20123;-71
2023/08/07 08:38:42;;;;;;;6.28;2.30;;;;;;;13.69;100.00;100275.41;5123063;27;20051;-71
2023/08/07 08:41:12;;;;;;;9.30;2.78;;;;;;;13.75;100.00;100274.16;5122341;27;20049;-73
2023/08/07 08:43:41;;;;;;;8.82;2.72;;;;;;;13.78;100.00;100273.13;5099488;27;20516;-73
2023/08/07 08:46:10;;;;;;;6.95;2.42;;;;;;;13.88;100.00;100276.91;5116870;27;20126;-72
2023/08/07 08:48:45;;;;;;;8.70;2.47;;;;;;;13.92;100.00;100284.63;5126846;27;20035;-75
2023/08/07 08:51:18;;;;;;;5.25;2.33;;;;;;;13.98;100.00;100284.25;5106623;27;20530;-73
2023/08/07 08:53:49;;;;;;;7.32;2.15;;;;;;;14.04;100.00;100277.66;5104128;27;20723;-72
2023/08/07 08:56:19;;;;;;;7.07;2.13;;;;;;;14.10;100.00;100292.41;5098912;27;20054;-72
2023/08/07 08:58:47;;;;;;;3.38;1.98;;;;;;;14.13;100.00;100289.56;5121616;27;20067;-73
2023/08/07 09:01:16;;;;;;;4.00;2.28;;;;;;;13.98;100.00;100273.59;5119747;27;20054;-72
2023/08/07 09:03:45;;;;;;;5.30;2.25;;;;;;;14.03;100.00;100287.47;5123727;27;20055;-74
2023/08/07 09:06:14;;;;;;;6.03;2.10;;;;;;;14.05;100.00;100298.88;5130360;27;20495;-74
2023/08/07 09:08:43;;;;;;;4.13;2.10;;;;;;;14.07;100.00;100296.13;5110999;27;20129;-73
2023/08/07 09:11:13;;;;;;;6.63;2.30;;;;;;;14.08;100.00;100304.97;5125542;27;20047;-72
2023/08/07 09:13:45;;;;;;;5.50;2.50;;;;;;;14.04;100.00;100302.50;5122183;27;20088;-71
2023/08/07 09:16:14;;;;;;;3.20;1.90;;;;;;;14.00;100.00;100294.81;5099798;27;20047;-71
2023/08/07 09:18:45;;;;;;;6.57;2.22;;;;;;;14.06;100.00;100305.06;5126851;27;20070;-74
2023/08/07 09:21:16;;;;;;;6.70;2.28;;;;;;;14.11;100.00;100302.97;5112488;27;20092;-73
2023/08/07 09:23:44;;;;;;;7.88;2.38;;;;;;;14.18;100.00;100304.28;5135600;27;20545;-72
2023/08/07 09:26:12;;;;;;;6.85;2.00;;;;;;;14.29;100.00;100308.94;5135282;27;20043;-72
2023/08/07 09:28:39;;;;;;;6.10;1.85;;;;;;;14.30;100.00;100318.66;5135671;27;20058;-73
2023/08/07 09:31:09;;;;;;;4.07;1.77;;;;;;;14.24;100.00;100311.03;5134055;27;20039;-72
2023/08/07 09:33:40;;;;;;;5.70;1.70;;;;;;;14.26;100.00;100319.78;5126987;27;20090;-71
2023/08/07 09:36:08;;;;;;;4.38;1.77;;;;;;;14.01;100.00;100284.03;5102371;27;20066;-72
2023/08/07 09:38:36;;;;;;;4.55;1.90;;;;;;;14.17;100.00;100321.22;5125094;27;20108;-73
2023/08/07 09:41:04;;;;;;;4.50;1.45;;;;;;;14.21;100.00;100328.06;5128834;27;20043;-72
2023/08/07 09:43:35;;;;;;;3.17;1.50;;;;;;;14.35;100.00;100338.69;5130929;27;20487;-70
2023/08/07 09:46:04;;;;;;;3.95;1.45;;;;;;;14.38;100.00;100341.16;5121185;27;20059;-73
2023/08/07 09:48:40;;;;;;;2.60;1.50;;;;;;;14.44;100.00;100336.44;5128088;27;20591;-73
2023/08/07 09:51:08;;;;;;;1.73;1.38;;;;;;;14.46;100.00;100339.88;5105846;27;20051;-73
2023/08/07 09:53:37;;;;;;;4.07;1.60;;;;;;;14.43;100.00;100342.72;5122261;27;20050;-73
2023/08/07 09:56:05;;;;;;;4.78;1.33;;;;;;;14.42;100.00;100341.03;5120486;27;20069;-74
2023/08/07 09:58:33;;;;;;;2.03;1.33;;;;;;;14.46;100.00;100351.41;5123911;27;20126;-76
2023/08/07 10:01:04;;;;;;;3.97;1.48;;;;;;;14.47;100.00;100341.59;5128627;27;20019;-74
2023/08/07 10:03:34;;;;;;;2.47;1.02;;;;;;;14.44;100.00;100344.44;5130092;27;20035;-75
2023/08/07 10:06:03;;;;;;;2.22;0.93;;;;;;;14.48;100.00;100351.28;5133557;27;20040;-75
2023/08/07 10:08:32;;;;;;;3.22;1.30;;;;;;;14.45;100.00;100355.00;5129505;27;20043;-74
2023/08/07 10:11:01;;;;;;;3.03;1.20;;;;;;;14.46;100.00;100367.38;5125833;27;20392;-74
2023/08/07 10:13:30;;;;;;;2.80;1.30;;;;;;;14.40;100.00;100343.78;5123779;27;21947;-74
2023/08/07 10:16:07;;;;;;;3.80;1.65;;;;;;;14.54;100.00;100373.06;5114389;27;20047;-74
2023/08/07 10:18:37;;;;;;;1.85;1.00;;;;;;;14.47;100.00;100366.44;5110395;27;20066;-74
2023/08/07 10:21:08;;;;;;;2.08;1.10;;;;;;;14.38;100.00;100374.94;5119389;27;20055;-76
2023/08/07 10:23:40;;;;;;;1.60;1.08;;;;;;;14.33;100.00;100369.91;5108647;27;20044;-76
2023/08/07 10:26:12;;;;;;;2.17;1.10;;;;;;;14.21;100.00;100372.47;5135033;27;20099;-75
2023/08/07 10:28:43;;;;;;;1.92;1.30;;;;;;;14.26;100.00;100381.91;5135075;27;20063;-74
2023/08/07 10:31:13;;;;;;;2.90;1.10;;;;;;;14.26;100.00;100376.59;5137188;27;20039;-74
2023/08/07 10:33:43;;;;;;;2.30;1.25;;;;;;;14.27;100.00;100380.09;5128155;27;20036;-73
2023/08/07 10:36:12;;;;;;;3.33;1.17;;;;;;;14.26;100.00;100375.72;5121235;27;20055;-73
2023/08/07 10:38:41;;;;;;;1.33;0.90;;;;;;;14.25;100.00;100392.66;5130289;27;20039;-72
2023/08/07 10:41:10;;;;;;;2.15;1.40;;;;;;;14.21;100.00;100373.34;5135303;27;20067;-75
2023/08/07 10:43:40;;;;;;;4.50;1.10;;;;;;;14.32;100.00;100397.50;5147558;27;20047;-73
2023/08/07 10:46:10;;;;;;;2.63;1.13;;;;;;;14.31;100.00;100389.63;5122034;27;20039;-74
2023/08/07 10:48:40;;;;;;;2.60;1.50;;;;;;;14.44;100.00;100403.91;5125179;27;20067;-71
2023/08/07 10:51:09;;;;;;;3.17;1.30;;;;;;;14.41;100.00;100400.56;5125489;27;20043;-72
2023/08/07 10:53:42;;;;;;;4.45;1.65;;;;;;;14.42;100.00;100403.16;5122266;27;20066;-73
2023/08/07 10:56:12;;;;;;;3.70;1.60;;;;;;;14.43;100.00;100406.66;5115218;27;20169;-73
2023/08/07 10:58:41;;;;;;;4.25;1.50;;;;;;;14.42;100.00;100410.28;5125287;27;20121;-73
2023/08/07 11:01:22;;;;;;;3.22;1.50;;;;;;;14.42;100.00;100412.94;5119483;27;20043;-73
2023/08/07 11:03:54;;;;;;;4.35;1.92;;;;;;;14.45;100.00;100400.31;5117325;28;20083;-74
2023/08/07 11:06:27;;;;;;;3.45;1.30;;;;;;;14.47;100.00;100400.22;5124687;27;20048;-72
2023/08/07 11:08:55;;;;;;;4.88;1.50;;;;;;;14.43;100.00;100404.00;5132009;27;20404;-73
2023/08/07 11:11:25;;;;;;;4.00;1.77;;;;;;;14.42;100.00;100395.16;5127342;28;20035;-73
2023/08/07 11:13:53;;;;;;;4.07;1.85;;;;;;;14.53;100.00;100408.66;5129678;27;20055;-73
2023/08/07 11:16:22;;;;;;;3.85;1.60;;;;;;;14.56;100.00;100412.94;5127456;28;20039;-75
2023/08/07 11:18:51;;;;;;;6.32;1.52;;;;;;;14.57;100.00;100410.19;5134375;28;20043;-72
2023/08/07 11:21:22;;;;;;;5.38;1.75;;;;;;;14.63;100.00;100398.28;5138626;28;20070;-73
2023/08/07 11:23:51;;;;;;;9.77;1.90;;;;;;;14.73;100.00;100410.06;5138013;28;20054;-73
2023/08/07 11:26:21;;;;;;;6.40;1.92;;;;;;;14.82;100.00;100403.28;5133030;28;20377;-74
2023/08/07 11:28:50;;;;;;;5.50;1.42;;;;;;;14.81;100.00;100405.06;5122247;28;20046;-75